sensor_id;sensor_type;location;lat;lon;timestamp;pressure;altitude;pressure_sealevel;temperature;humidity
706;BME280;21234;48.690;9.016;2023-07-24T00:01:15;95515.84;;;18.64;74.19
706;BME280;21234;48.690;9.016;2023-07-24T00:03:42;95522.50;;;18.63;74.17
706;BME280;21234;48.690;9.016;2023-07-24T00:06:10;95516.34;;;18.66;72.55
706;BME280;21234;48.690;9.016;2023-07-24T00:08:37;95495.78;;;18.64;72.53
706;BME280;21234;48.690;9.016;2023-07-24T00:11:07;95536.00;;;18.42;83.30
706;BME280;21234;48.690;9.016;2023-07-24T00:13:33;95528.78;;;18.24;89.55
706;BME280;21234;48.690;9.016;2023-07-24T00:16:00;95502.31;;;18.06;93.61
706;BME280;21234;48.690;9.016;2023-07-24T00:18:27;95499.03;;;17.95;92.92
706;BME280;21234;48.690;9.016;2023-07-24T00:20:53;95496.69;;;17.80;96.24
706;BME280;21234;48.690;9.016;2023-07-24T00:23:21;95488.69;;;17.70;93.39
706;BME280;21234;48.690;9.016;2023-07-24T00:25:48;95498.69;;;17.66;94.26
706;BME280;21234;48.690;9.016;2023-07-24T00:28:14;95495.69;;;17.54;92.59
706;BME280;21234;48.690;9.016;2023-07-24T00:30:42;95493.56;;;17.51;96.68
706;BME280;21234;48.690;9.016;2023-07-24T00:33:09;95479.81;;;17.51;97.46
706;BME280;21234;48.690;9.016;2023-07-24T00:35:35;95474.97;;;17.48;97.51
706;BME280;21234;48.690;9.016;2023-07-24T00:38:02;95473.16;;;17.43;93.68
706;BME280;21234;48.690;9.016;2023-07-24T00:40:30;95473.47;;;17.41;91.57
706;BME280;21234;48.690;9.016;2023-07-24T00:42:57;95468.59;;;17.38;90.84
706;BME280;21234;48.690;9.016;2023-07-24T00:45:23;95478.25;;;17.36;94.61
706;BME280;21234;48.690;9.016;2023-07-24T00:47:51;95469.50;;;17.34;98.73
706;BME280;21234;48.690;9.016;2023-07-24T00:50:18;95463.03;;;17.30;98.27
706;BME280;21234;48.690;9.016;2023-07-24T00:52:45;95469.59;;;17.20;100.00
706;BME280;21234;48.690;9.016;2023-07-24T00:55:13;95461.03;;;17.22;100.00
706;BME280;21234;48.690;9.016;2023-07-24T00:57:43;95453.59;;;17.22;98.30
706;BME280;21234;48.690;9.016;2023-07-24T01:00:11;95461.50;;;17.24;99.96
706;BME280;21234;48.690;9.016;2023-07-24T01:02:38;95454.91;;;17.25;100.00
706;BME280;21234;48.690;9.016;2023-07-24T01:05:05;95445.84;;;17.24;100.00
706;BME280;21234;48.690;9.016;2023-07-24T01:07:32;95436.78;;;17.24;100.00
706;BME280;21234;48.690;9.016;2023-07-24T01:09:59;95437.78;;;17.28;100.00
706;BME280;21234;48.690;9.016;2023-07-24T01:12:30;95439.22;;;17.25;100.00
706;BME280;21234;48.690;9.016;2023-07-24T01:15:05;95436.31;;;17.22;100.00
706;BME280;21234;48.690;9.016;2023-07-24T01:17:34;95439.00;;;17.13;100.00
706;BME280;21234;48.690;9.016;2023-07-24T01:20:07;95426.63;;;17.02;96.77
706;BME280;21234;48.690;9.016;2023-07-24T01:22:38;95428.75;;;17.05;95.01
706;BME280;21234;48.690;9.016;2023-07-24T01:25:10;95429.25;;;17.07;94.01
706;BME280;21234;48.690;9.016;2023-07-24T01:27:43;95418.69;;;17.00;91.67
706;BME280;21234;48.690;9.016;2023-07-24T01:30:11;95432.44;;;17.00;91.31
706;BME280;21234;48.690;9.016;2023-07-24T01:32:38;95430.59;;;16.96;90.02
706;BME280;21234;48.690;9.016;2023-07-24T01:35:05;95428.19;;;16.94;88.52
706;BME280;21234;48.690;9.016;2023-07-24T01:37:34;95432.84;;;16.94;87.16
706;BME280;21234;48.690;9.016;2023-07-24T01:40:02;95438.53;;;16.97;87.02
706;BME280;21234;48.690;9.016;2023-07-24T01:42:29;95437.09;;;17.00;86.01
706;BME280;21234;48.690;9.016;2023-07-24T01:44:57;95436.00;;;17.01;85.04
706;BME280;21234;48.690;9.016;2023-07-24T01:47:24;95435.69;;;17.02;84.83
706;BME280;21234;48.690;9.016;2023-07-24T01:49:51;95433.13;;;17.06;83.62
706;BME280;21234;48.690;9.016;2023-07-24T01:52:18;95428.94;;;17.08;83.48
706;BME280;21234;48.690;9.016;2023-07-24T01:54:44;95423.44;;;17.08;82.73
706;BME280;21234;48.690;9.016;2023-07-24T01:57:12;95420.72;;;17.08;82.41
706;BME280;21234;48.690;9.016;2023-07-24T01:59:39;95423.75;;;17.07;81.62
706;BME280;21234;48.690;9.016;2023-07-24T02:02:07;95423.44;;;17.08;82.03
706;BME280;21234;48.690;9.016;2023-07-24T02:04:33;95428.63;;;17.10;81.39
706;BME280;21234;48.690;9.016;2023-07-24T02:07:00;95421.41;;;17.14;81.58
706;BME280;21234;48.690;9.016;2023-07-24T02:09:26;95415.28;;;17.17;80.82
706;BME280;21234;48.690;9.016;2023-07-24T02:11:53;95414.34;;;17.22;84.61
706;BME280;21234;48.690;9.016;2023-07-24T02:14:20;95404.66;;;17.24;87.88
706;BME280;21234;48.690;9.016;2023-07-24T02:16:46;95397.06;;;17.21;90.46
706;BME280;21234;48.690;9.016;2023-07-24T02:19:14;95398.63;;;17.13;92.26
706;BME280;21234;48.690;9.016;2023-07-24T02:21:41;95403.22;;;17.04;93.80
706;BME280;21234;48.690;9.016;2023-07-24T02:24:08;95403.97;;;16.96;96.81
706;BME280;21234;48.690;9.016;2023-07-24T02:26:34;95409.09;;;16.89;95.42
706;BME280;21234;48.690;9.016;2023-07-24T02:29:01;95406.47;;;16.84;96.59
706;BME280;21234;48.690;9.016;2023-07-24T02:31:28;95401.59;;;16.81;97.51
706;BME280;21234;48.690;9.016;2023-07-24T02:33:54;95404.16;;;16.77;98.79
706;BME280;21234;48.690;9.016;2023-07-24T02:36:22;95400.47;;;16.82;99.09
706;BME280;21234;48.690;9.016;2023-07-24T02:38:49;95386.50;;;16.70;99.15
706;BME280;21234;48.690;9.016;2023-07-24T02:41:16;95384.13;;;16.63;100.00
706;BME280;21234;48.690;9.016;2023-07-24T02:43:42;95388.75;;;16.54;98.01
706;BME280;21234;48.690;9.016;2023-07-24T02:46:09;95392.53;;;16.44;94.75
706;BME280;21234;48.690;9.016;2023-07-24T02:48:35;95388.56;;;16.51;96.74
706;BME280;21234;48.690;9.016;2023-07-24T02:51:02;95389.47;;;16.46;98.48
706;BME280;21234;48.690;9.016;2023-07-24T02:53:30;95376.06;;;16.44;97.57
706;BME280;21234;48.690;9.016;2023-07-24T02:55:57;95368.25;;;16.38;97.74
706;BME280;21234;48.690;9.016;2023-07-24T02:58:23;95363.09;;;16.36;97.92
706;BME280;21234;48.690;9.016;2023-07-24T03:00:50;95361.25;;;16.32;99.53
706;BME280;21234;48.690;9.016;2023-07-24T03:03:17;95376.19;;;16.26;95.65
706;BME280;21234;48.690;9.016;2023-07-24T03:05:43;95370.84;;;16.21;95.23
706;BME280;21234;48.690;9.016;2023-07-24T03:08:10;95361.31;;;16.18;97.41
706;BME280;21234;48.690;9.016;2023-07-24T03:10:41;95361.31;;;16.18;98.54
706;BME280;21234;48.690;9.016;2023-07-24T03:13:08;95363.94;;;16.23;95.62
706;BME280;21234;48.690;9.016;2023-07-24T03:15:34;95349.13;;;16.24;94.81
706;BME280;21234;48.690;9.016;2023-07-24T03:18:01;95353.16;;;16.27;95.35
706;BME280;21234;48.690;9.016;2023-07-24T03:20:28;95358.75;;;16.22;94.01
706;BME280;21234;48.690;9.016;2023-07-24T03:22:54;95353.44;;;16.25;90.03
706;BME280;21234;48.690;9.016;2023-07-24T03:25:21;95346.94;;;16.35;89.26
706;BME280;21234;48.690;9.016;2023-07-24T03:27:49;95350.88;;;16.42;90.37
706;BME280;21234;48.690;9.016;2023-07-24T03:30:16;95346.53;;;16.41;91.76
706;BME280;21234;48.690;9.016;2023-07-24T03:32:42;95347.44;;;16.37;92.61
706;BME280;21234;48.690;9.016;2023-07-24T03:35:09;95355.59;;;16.28;95.12
706;BME280;21234;48.690;9.016;2023-07-24T03:37:36;95372.28;;;16.18;95.64
706;BME280;21234;48.690;9.016;2023-07-24T03:40:03;95364.34;;;16.17;98.24
706;BME280;21234;48.690;9.016;2023-07-24T03:42:31;95356.03;;;16.22;98.59
706;BME280;21234;48.690;9.016;2023-07-24T03:44:59;95358.13;;;16.25;99.90
706;BME280;21234;48.690;9.016;2023-07-24T03:47:26;95366.84;;;16.27;99.64
706;BME280;21234;48.690;9.016;2023-07-24T03:49:52;95365.44;;;16.29;100.00
706;BME280;21234;48.690;9.016;2023-07-24T03:52:20;95362.06;;;16.32;99.72
706;BME280;21234;48.690;9.016;2023-07-24T03:54:47;95346.44;;;16.33;97.38
706;BME280;21234;48.690;9.016;2023-07-24T03:57:13;95354.56;;;16.38;96.80
706;BME280;21234;48.690;9.016;2023-07-24T03:59:40;95362.34;;;16.44;97.93
706;BME280;21234;48.690;9.016;2023-07-24T04:02:08;95359.91;;;16.43;95.65
706;BME280;21234;48.690;9.016;2023-07-24T04:04:35;95368.03;;;16.48;97.60
706;BME280;21234;48.690;9.016;2023-07-24T04:07:02;95360.00;;;16.52;98.37
706;BME280;21234;48.690;9.016;2023-07-24T04:09:28;95356.34;;;16.56;100.00
706;BME280;21234;48.690;9.016;2023-07-24T04:11:55;95347.28;;;16.56;100.00
706;BME280;21234;48.690;9.016;2023-07-24T04:14:22;95340.34;;;16.58;100.00
706;BME280;21234;48.690;9.016;2023-07-24T04:16:49;95336.19;;;16.61;100.00
706;BME280;21234;48.690;9.016;2023-07-24T04:19:17;95342.94;;;16.55;100.00
706;BME280;21234;48.690;9.016;2023-07-24T04:21:43;95332.78;;;16.55;100.00
706;BME280;21234;48.690;9.016;2023-07-24T04:24:10;95322.09;;;16.54;100.00
706;BME280;21234;48.690;9.016;2023-07-24T04:26:37;95316.63;;;16.54;100.00
706;BME280;21234;48.690;9.016;2023-07-24T04:29:05;95308.53;;;16.57;100.00
706;BME280;21234;48.690;9.016;2023-07-24T04:31:31;95300.00;;;16.59;100.00
706;BME280;21234;48.690;9.016;2023-07-24T04:33:58;95300.81;;;16.59;100.00
706;BME280;21234;48.690;9.016;2023-07-24T04:36:26;95306.72;;;16.66;100.00
706;BME280;21234;48.690;9.016;2023-07-24T04:38:52;95297.38;;;16.67;100.00
706;BME280;21234;48.690;9.016;2023-07-24T04:41:19;95301.59;;;16.73;100.00
706;BME280;21234;48.690;9.016;2023-07-24T04:43:46;95305.09;;;16.65;100.00
706;BME280;21234;48.690;9.016;2023-07-24T04:46:13;95306.22;;;16.64;100.00
706;BME280;21234;48.690;9.016;2023-07-24T04:48:39;95302.13;;;16.62;100.00
706;BME280;21234;48.690;9.016;2023-07-24T04:51:06;95313.31;;;16.65;100.00
706;BME280;21234;48.690;9.016;2023-07-24T04:53:34;95305.69;;;16.62;100.00
706;BME280;21234;48.690;9.016;2023-07-24T04:56:01;95304.28;;;16.65;100.00
706;BME280;21234;48.690;9.016;2023-07-24T04:58:27;95308.66;;;16.66;100.00
706;BME280;21234;48.690;9.016;2023-07-24T05:00:54;95311.78;;;16.73;100.00
706;BME280;21234;48.690;9.016;2023-07-24T05:03:21;95299.69;;;16.74;100.00
706;BME280;21234;48.690;9.016;2023-07-24T05:05:48;95304.53;;;16.77;100.00
706;BME280;21234;48.690;9.016;2023-07-24T05:08:16;95300.06;;;16.81;100.00
706;BME280;21234;48.690;9.016;2023-07-24T05:10:44;95291.38;;;16.88;100.00
706;BME280;21234;48.690;9.016;2023-07-24T05:13:10;95297.53;;;16.93;100.00
706;BME280;21234;48.690;9.016;2023-07-24T05:15:37;95311.88;;;16.90;95.95
706;BME280;21234;48.690;9.016;2023-07-24T05:18:03;95321.94;;;16.95;94.57
706;BME280;21234;48.690;9.016;2023-07-24T05:20:30;95314.06;;;17.02;95.60
706;BME280;21234;48.690;9.016;2023-07-24T05:22:57;95327.66;;;17.07;94.46
706;BME280;21234;48.690;9.016;2023-07-24T05:25:23;95329.16;;;17.13;95.60
706;BME280;21234;48.690;9.016;2023-07-24T05:27:51;95327.72;;;17.16;94.70
706;BME280;21234;48.690;9.016;2023-07-24T05:30:18;95332.59;;;17.19;93.08
706;BME280;21234;48.690;9.016;2023-07-24T05:32:45;95345.19;;;17.20;90.45
706;BME280;21234;48.690;9.016;2023-07-24T05:35:11;95350.84;;;17.23;90.52
706;BME280;21234;48.690;9.016;2023-07-24T05:37:38;95348.59;;;17.25;91.36
706;BME280;21234;48.690;9.016;2023-07-24T05:40:06;95350.72;;;17.28;93.58
706;BME280;21234;48.690;9.016;2023-07-24T05:42:33;95347.84;;;17.33;94.94
706;BME280;21234;48.690;9.016;2023-07-24T05:45:06;95361.06;;;17.31;96.65
706;BME280;21234;48.690;9.016;2023-07-24T05:47:33;95362.00;;;17.27;96.50
706;BME280;21234;48.690;9.016;2023-07-24T05:50:00;95367.69;;;17.30;98.49
706;BME280;21234;48.690;9.016;2023-07-24T05:52:27;95373.19;;;17.30;98.63
706;BME280;21234;48.690;9.016;2023-07-24T05:54:53;95371.56;;;17.29;94.56
706;BME280;21234;48.690;9.016;2023-07-24T05:57:20;95370.13;;;17.32;94.26
706;BME280;21234;48.690;9.016;2023-07-24T05:59:47;95370.13;;;17.32;93.72
706;BME280;21234;48.690;9.016;2023-07-24T06:02:17;95369.63;;;17.30;91.57
706;BME280;21234;48.690;9.016;2023-07-24T06:04:43;95376.31;;;17.37;94.29
706;BME280;21234;48.690;9.016;2023-07-24T06:07:15;95366.94;;;17.38;88.21
706;BME280;21234;48.690;9.016;2023-07-24T06:09:42;95375.06;;;17.43;86.04
706;BME280;21234;48.690;9.016;2023-07-24T06:12:15;95367.31;;;17.45;83.96
706;BME280;21234;48.690;9.016;2023-07-24T06:14:42;95363.78;;;17.54;84.46
706;BME280;21234;48.690;9.016;2023-07-24T06:17:08;95358.94;;;17.59;82.21
706;BME280;21234;48.690;9.016;2023-07-24T06:19:36;95363.81;;;17.62;80.83
706;BME280;21234;48.690;9.016;2023-07-24T06:22:03;95361.28;;;17.66;82.32
706;BME280;21234;48.690;9.016;2023-07-24T06:24:30;95364.69;;;17.71;80.19
706;BME280;21234;48.690;9.016;2023-07-24T06:26:57;95350.19;;;17.79;79.13
706;BME280;21234;48.690;9.016;2023-07-24T06:29:23;95337.25;;;17.89;80.18
706;BME280;21234;48.690;9.016;2023-07-24T06:31:51;95327.75;;;17.95;80.32
706;BME280;21234;48.690;9.016;2023-07-24T06:34:18;95336.03;;;18.03;79.67
706;BME280;21234;48.690;9.016;2023-07-24T06:36:46;95326.50;;;18.09;79.46
706;BME280;21234;48.690;9.016;2023-07-24T06:39:13;95327.66;;;18.17;80.19
706;BME280;21234;48.690;9.016;2023-07-24T06:41:40;95317.59;;;18.21;81.21
706;BME280;21234;48.690;9.016;2023-07-24T06:44:06;95306.44;;;18.26;83.33
706;BME280;21234;48.690;9.016;2023-07-24T06:46:33;95308.56;;;18.29;82.39
706;BME280;21234;48.690;9.016;2023-07-24T06:49:00;95312.28;;;18.33;81.39
706;BME280;21234;48.690;9.016;2023-07-24T06:51:27;95308.88;;;18.36;78.96
706;BME280;21234;48.690;9.016;2023-07-24T06:53:55;95297.09;;;18.44;77.99
706;BME280;21234;48.690;9.016;2023-07-24T06:56:21;95300.16;;;18.52;80.59
706;BME280;21234;48.690;9.016;2023-07-24T06:58:48;95311.63;;;18.54;82.40
706;BME280;21234;48.690;9.016;2023-07-24T07:01:15;95306.78;;;18.59;81.86
706;BME280;21234;48.690;9.016;2023-07-24T07:03:41;95302.28;;;18.72;78.59
706;BME280;21234;48.690;9.016;2023-07-24T07:06:08;95302.56;;;18.88;77.99
706;BME280;21234;48.690;9.016;2023-07-24T07:08:37;95303.53;;;19.00;78.02
706;BME280;21234;48.690;9.016;2023-07-24T07:11:05;95315.03;;;19.11;78.63
706;BME280;21234;48.690;9.016;2023-07-24T07:13:31;95320.69;;;19.15;78.30
706;BME280;21234;48.690;9.016;2023-07-24T07:15:58;95340.47;;;19.17;77.43
706;BME280;21234;48.690;9.016;2023-07-24T07:18:25;95334.28;;;19.20;78.32
706;BME280;21234;48.690;9.016;2023-07-24T07:20:53;95337.34;;;19.18;76.02
706;BME280;21234;48.690;9.016;2023-07-24T07:23:20;95346.44;;;19.19;76.98
706;BME280;21234;48.690;9.016;2023-07-24T07:25:47;95357.78;;;19.17;77.42
706;BME280;21234;48.690;9.016;2023-07-24T07:28:16;95359.75;;;19.17;77.61
706;BME280;21234;48.690;9.016;2023-07-24T07:30:43;95366.84;;;19.18;77.83
706;BME280;21234;48.690;9.016;2023-07-24T07:33:10;95355.66;;;19.23;78.02
706;BME280;21234;48.690;9.016;2023-07-24T07:35:36;95362.28;;;19.30;78.17
706;BME280;21234;48.690;9.016;2023-07-24T07:38:03;95361.47;;;19.38;77.27
706;BME280;21234;48.690;9.016;2023-07-24T07:40:30;95369.41;;;19.49;78.00
706;BME280;21234;48.690;9.016;2023-07-24T07:42:57;95382.84;;;19.59;77.30
706;BME280;21234;48.690;9.016;2023-07-24T07:45:25;95376.81;;;19.65;75.75
706;BME280;21234;48.690;9.016;2023-07-24T07:47:51;95376.66;;;19.70;74.98
706;BME280;21234;48.690;9.016;2023-07-24T07:50:18;95389.63;;;19.70;74.68
706;BME280;21234;48.690;9.016;2023-07-24T07:52:46;95379.91;;;19.72;74.12
706;BME280;21234;48.690;9.016;2023-07-24T07:55:15;95393.19;;;19.70;75.71
706;BME280;21234;48.690;9.016;2023-07-24T07:57:42;95421.09;;;19.69;77.25
706;BME280;21234;48.690;9.016;2023-07-24T08:00:10;95425.50;;;19.61;78.15
706;BME280;21234;48.690;9.016;2023-07-24T08:02:38;95427.78;;;19.51;79.51
706;BME280;21234;48.690;9.016;2023-07-24T08:05:06;95413.66;;;19.43;81.58
706;BME280;21234;48.690;9.016;2023-07-24T08:07:33;95401.34;;;19.32;81.93
706;BME280;21234;48.690;9.016;2023-07-24T08:10:00;95396.34;;;19.17;88.58
706;BME280;21234;48.690;9.016;2023-07-24T08:12:27;95401.06;;;18.99;91.32
706;BME280;21234;48.690;9.016;2023-07-24T08:14:54;95401.06;;;18.82;94.01
706;BME280;21234;48.690;9.016;2023-07-24T08:17:20;95386.00;;;18.62;97.69
706;BME280;21234;48.690;9.016;2023-07-24T08:19:48;95379.63;;;18.44;100.00
706;BME280;21234;48.690;9.016;2023-07-24T08:22:15;95381.56;;;18.35;100.00
706;BME280;21234;48.690;9.016;2023-07-24T08:24:42;95344.66;;;18.19;100.00
706;BME280;21234;48.690;9.016;2023-07-24T08:27:10;95327.16;;;18.15;100.00
706;BME280;21234;48.690;9.016;2023-07-24T08:29:36;95334.44;;;18.11;100.00
706;BME280;21234;48.690;9.016;2023-07-24T08:32:04;95310.47;;;18.11;100.00
706;BME280;21234;48.690;9.016;2023-07-24T08:34:31;95313.56;;;18.10;100.00
706;BME280;21234;48.690;9.016;2023-07-24T08:36:59;95306.13;;;18.10;100.00
706;BME280;21234;48.690;9.016;2023-07-24T08:39:26;95302.91;;;18.17;100.00
706;BME280;21234;48.690;9.016;2023-07-24T08:41:52;95299.00;;;18.18;100.00
706;BME280;21234;48.690;9.016;2023-07-24T08:44:20;95300.47;;;18.16;100.00
706;BME280;21234;48.690;9.016;2023-07-24T08:46:47;95299.97;;;18.13;100.00
706;BME280;21234;48.690;9.016;2023-07-24T08:49:15;95293.84;;;18.17;100.00
706;BME280;21234;48.690;9.016;2023-07-24T08:51:43;95285.41;;;18.22;100.00
706;BME280;21234;48.690;9.016;2023-07-24T08:54:12;95283.78;;;18.21;100.00
706;BME280;21234;48.690;9.016;2023-07-24T08:56:39;95294.78;;;18.29;100.00
706;BME280;21234;48.690;9.016;2023-07-24T08:59:07;95290.59;;;18.32;100.00
706;BME280;21234;48.690;9.016;2023-07-24T09:01:33;95298.84;;;18.40;100.00
706;BME280;21234;48.690;9.016;2023-07-24T09:04:00;95309.06;;;18.40;100.00
706;BME280;21234;48.690;9.016;2023-07-24T09:06:27;95318.78;;;18.46;100.00
706;BME280;21234;48.690;9.016;2023-07-24T09:08:54;95317.63;;;18.56;100.00
706;BME280;21234;48.690;9.016;2023-07-24T09:11:22;95311.03;;;18.65;100.00
706;BME280;21234;48.690;9.016;2023-07-24T09:13:49;95316.53;;;18.74;100.00
706;BME280;21234;48.690;9.016;2023-07-24T09:16:23;95306.34;;;18.83;100.00
706;BME280;21234;48.690;9.016;2023-07-24T09:18:50;95310.34;;;18.86;100.00
706;BME280;21234;48.690;9.016;2023-07-24T09:21:27;95305.16;;;18.93;100.00
706;BME280;21234;48.690;9.016;2023-07-24T09:23:54;95299.31;;;19.03;100.00
706;BME280;21234;48.690;9.016;2023-07-24T09:26:22;95301.25;;;19.02;100.00
706;BME280;21234;48.690;9.016;2023-07-24T09:28:52;95291.88;;;19.03;100.00
706;BME280;21234;48.690;9.016;2023-07-24T09:31:18;95290.72;;;19.04;100.00
706;BME280;21234;48.690;9.016;2023-07-24T09:33:45;95287.16;;;19.04;100.00
706;BME280;21234;48.690;9.016;2023-07-24T09:36:12;95285.06;;;19.01;100.00
706;BME280;21234;48.690;9.016;2023-07-24T09:38:40;95286.53;;;18.98;100.00
706;BME280;21234;48.690;9.016;2023-07-24T09:41:07;95297.69;;;19.02;100.00
706;BME280;21234;48.690;9.016;2023-07-24T09:43:35;95304.66;;;19.08;100.00
706;BME280;21234;48.690;9.016;2023-07-24T09:46:04;95306.75;;;19.11;100.00
706;BME280;21234;48.690;9.016;2023-07-24T09:48:31;95312.44;;;19.15;100.00
706;BME280;21234;48.690;9.016;2023-07-24T09:50:59;95333.19;;;19.12;100.00
706;BME280;21234;48.690;9.016;2023-07-24T09:53:32;95344.53;;;19.10;100.00
706;BME280;21234;48.690;9.016;2023-07-24T09:56:01;95343.72;;;19.10;100.00
706;BME280;21234;48.690;9.016;2023-07-24T09:58:30;95356.19;;;19.07;100.00
706;BME280;21234;48.690;9.016;2023-07-24T10:00:59;95368.34;;;19.06;100.00
706;BME280;21234;48.690;9.016;2023-07-24T10:03:28;95365.59;;;19.06;100.00
706;BME280;21234;48.690;9.016;2023-07-24T10:05:56;95362.50;;;19.08;100.00
706;BME280;21234;48.690;9.016;2023-07-24T10:08:24;95366.41;;;19.07;100.00
706;BME280;21234;48.690;9.016;2023-07-24T10:10:52;95369.00;;;19.03;100.00
706;BME280;21234;48.690;9.016;2023-07-24T10:13:20;95370.28;;;18.97;100.00
706;BME280;21234;48.690;9.016;2023-07-24T10:15:48;95383.25;;;18.97;100.00
706;BME280;21234;48.690;9.016;2023-07-24T10:18:17;95387.28;;;18.91;100.00
706;BME280;21234;48.690;9.016;2023-07-24T10:20:44;95375.78;;;18.89;100.00
706;BME280;21234;48.690;9.016;2023-07-24T10:23:16;95384.69;;;18.86;100.00
706;BME280;21234;48.690;9.016;2023-07-24T10:25:45;95384.38;;;18.78;100.00
706;BME280;21234;48.690;9.016;2023-07-24T10:28:12;95391.69;;;18.74;100.00
706;BME280;21234;48.690;9.016;2023-07-24T10:30:42;95384.22;;;18.66;100.00
706;BME280;21234;48.690;9.016;2023-07-24T10:33:10;95395.69;;;18.60;100.00
706;BME280;21234;48.690;9.016;2023-07-24T10:35:43;95403.13;;;18.51;100.00
706;BME280;21234;48.690;9.016;2023-07-24T10:38:12;95398.72;;;18.41;100.00
706;BME280;21234;48.690;9.016;2023-07-24T10:40:39;95407.28;;;18.31;100.00
706;BME280;21234;48.690;9.016;2023-07-24T10:43:07;95418.09;;;18.19;100.00
706;BME280;21234;48.690;9.016;2023-07-24T10:45:47;95418.84;;;18.02;100.00
706;BME280;21234;48.690;9.016;2023-07-24T10:48:14;95411.66;;;17.92;100.00
706;BME280;21234;48.690;9.016;2023-07-24T10:50:43;95421.03;;;17.91;100.00
706;BME280;21234;48.690;9.016;2023-07-24T10:53:11;95428.66;;;17.86;100.00
706;BME280;21234;48.690;9.016;2023-07-24T10:55:39;95436.53;;;17.78;100.00
706;BME280;21234;48.690;9.016;2023-07-24T10:58:07;95427.25;;;17.66;100.00
706;BME280;21234;48.690;9.016;2023-07-24T11:00:34;95417.16;;;17.61;100.00
706;BME280;21234;48.690;9.016;2023-07-24T11:03:01;95399.97;;;17.56;100.00
706;BME280;21234;48.690;9.016;2023-07-24T11:05:28;95378.28;;;17.45;100.00
706;BME280;21234;48.690;9.016;2023-07-24T11:07:56;95383.47;;;17.47;100.00
706;BME280;21234;48.690;9.016;2023-07-24T11:10:23;95365.81;;;17.39;100.00
706;BME280;21234;48.690;9.016;2023-07-24T11:12:51;95355.31;;;17.41;100.00
706;BME280;21234;48.690;9.016;2023-07-24T11:15:24;95358.19;;;17.36;100.00
706;BME280;21234;48.690;9.016;2023-07-24T11:17:52;95339.91;;;17.32;100.00
706;BME280;21234;48.690;9.016;2023-07-24T11:20:19;95331.97;;;17.30;100.00
706;BME280;21234;48.690;9.016;2023-07-24T11:22:45;95300.28;;;17.24;100.00
706;BME280;21234;48.690;9.016;2023-07-24T11:25:13;95255.72;;;17.27;100.00
706;BME280;21234;48.690;9.016;2023-07-24T11:27:43;95248.28;;;17.28;100.00
706;BME280;21234;48.690;9.016;2023-07-24T11:30:11;95264.16;;;17.39;100.00
706;BME280;21234;48.690;9.016;2023-07-24T11:32:39;95278.81;;;17.66;100.00
706;BME280;21234;48.690;9.016;2023-07-24T11:35:06;95285.53;;;17.99;100.00
706;BME280;21234;48.690;9.016;2023-07-24T11:37:34;95271.84;;;18.68;100.00
706;BME280;21234;48.690;9.016;2023-07-24T11:40:02;95275.97;;;19.09;100.00
706;BME280;21234;48.690;9.016;2023-07-24T11:42:31;95283.38;;;19.17;100.00
706;BME280;21234;48.690;9.016;2023-07-24T11:45:01;95266.09;;;19.08;100.00
706;BME280;21234;48.690;9.016;2023-07-24T11:47:28;95258.22;;;18.81;100.00
706;BME280;21234;48.690;9.016;2023-07-24T11:49:57;95280.38;;;18.58;100.00
706;BME280;21234;48.690;9.016;2023-07-24T11:52:24;95295.13;;;18.54;100.00
706;BME280;21234;48.690;9.016;2023-07-24T11:54:59;95306.75;;;18.25;100.00
706;BME280;21234;48.690;9.016;2023-07-24T11:57:28;95312.41;;;18.20;100.00
706;BME280;21234;48.690;9.016;2023-07-24T11:59:57;95314.38;;;18.19;100.00
706;BME280;21234;48.690;9.016;2023-07-24T12:02:26;95325.41;;;18.36;100.00
706;BME280;21234;48.690;9.016;2023-07-24T12:04:56;95327.38;;;18.62;100.00
706;BME280;21234;48.690;9.016;2023-07-24T12:07:29;95325.13;;;18.81;100.00
706;BME280;21234;48.690;9.016;2023-07-24T12:09:56;95323.63;;;19.01;100.00
706;BME280;21234;48.690;9.016;2023-07-24T12:12:23;95307.25;;;19.04;100.00
706;BME280;21234;48.690;9.016;2023-07-24T12:14:50;95306.28;;;19.00;100.00
706;BME280;21234;48.690;9.016;2023-07-24T12:17:19;95307.75;;;19.06;100.00
706;BME280;21234;48.690;9.016;2023-07-24T12:19:46;95302.84;;;19.21;100.00
706;BME280;21234;48.690;9.016;2023-07-24T12:22:13;95311.03;;;19.55;100.00
706;BME280;21234;48.690;9.016;2023-07-24T12:24:40;95310.56;;;19.83;100.00
706;BME280;21234;48.690;9.016;2023-07-24T12:27:06;95300.78;;;19.94;100.00
706;BME280;21234;48.690;9.016;2023-07-24T12:29:33;95287.81;;;19.94;100.00
706;BME280;21234;48.690;9.016;2023-07-24T12:32:00;95292.84;;;19.92;100.00
706;BME280;21234;48.690;9.016;2023-07-24T12:34:28;95275.94;;;19.73;100.00
706;BME280;21234;48.690;9.016;2023-07-24T12:36:54;95280.66;;;19.64;100.00
706;BME280;21234;48.690;9.016;2023-07-24T12:39:21;95274.72;;;19.53;100.00
706;BME280;21234;48.690;9.016;2023-07-24T12:41:48;95279.84;;;19.63;100.00
706;BME280;21234;48.690;9.016;2023-07-24T12:44:14;95270.00;;;19.83;100.00
706;BME280;21234;48.690;9.016;2023-07-24T12:46:41;95264.22;;;20.05;100.00
706;BME280;21234;48.690;9.016;2023-07-24T12:49:08;95253.03;;;20.23;100.00
706;BME280;21234;48.690;9.016;2023-07-24T12:51:36;95247.44;;;20.40;100.00
706;BME280;21234;48.690;9.016;2023-07-24T12:54:02;95257.09;;;20.25;100.00
706;BME280;21234;48.690;9.016;2023-07-24T12:56:29;95250.38;;;20.14;100.00
706;BME280;21234;48.690;9.016;2023-07-24T12:58:56;95240.72;;;20.20;100.00
706;BME280;21234;48.690;9.016;2023-07-24T13:01:22;95233.06;;;20.26;100.00
706;BME280;21234;48.690;9.016;2023-07-24T13:03:50;95239.13;;;20.61;100.00
706;BME280;21234;48.690;9.016;2023-07-24T13:06:16;95231.94;;;20.80;100.00
706;BME280;21234;48.690;9.016;2023-07-24T13:08:44;95239.38;;;21.01;100.00
706;BME280;21234;48.690;9.016;2023-07-24T13:11:11;95234.53;;;21.31;100.00
706;BME280;21234;48.690;9.016;2023-07-24T13:13:38;95227.63;;;21.49;100.00
706;BME280;21234;48.690;9.016;2023-07-24T13:16:05;95224.75;;;21.58;98.95
706;BME280;21234;48.690;9.016;2023-07-24T13:18:32;95238.38;;;21.75;99.77